Time;durP1;ratioP1;P1;durP2;ratioP2;P2;SDS_P1;SDS_P2;PMS_P1;PMS_P2;Temp;Humidity;BMP_temperature;BMP_pressure;BME280_temperature;BME280_humidity;BME280_pressure;Samples;Min_cycle;Max_cycle;Signal;HPM_P1;HPM_P2
2022/04/12 00:01:41;;;;;;;4.95;3.00;;;6.20;91.30;;;;;;5065139;28;20079;-78
2022/04/12 00:04:06;;;;;;;4.88;2.90;;;6.30;91.40;;;;;;5076949;28;20020;-78
2022/04/12 00:06:32;;;;;;;3.33;2.88;;;6.20;91.50;;;;;;5069777;28;20530;-80
2022/04/12 00:08:59;;;;;;;4.00;2.85;;;6.20;91.60;;;;;;5077195;28;20082;-79
2022/04/12 00:11:25;;;;;;;2.67;2.35;;;6.20;91.60;;;;;;5060123;28;20098;-80
2022/04/12 00:13:51;;;;;;;3.08;2.42;;;6.20;91.60;;;;;;5057660;28;20044;-78
2022/04/12 00:16:16;;;;;;;3.88;2.80;;;6.20;91.70;;;;;;5057984;28;20052;-79
2022/04/12 00:21:27;;;;;;;3.63;2.67;;;6.20;91.80;;;;;;5073261;28;20043;-79
2022/04/12 00:23:52;;;;;;;3.15;2.40;;;6.10;91.80;;;;;;5077707;28;20025;-79
2022/04/12 00:26:18;;;;;;;2.85;2.25;;;6.10;91.90;;;;;;5082128;28;20047;-78
2022/04/12 00:28:44;;;;;;;3.33;2.40;;;6.10;91.90;;;;;;5064797;28;20025;-78
2022/04/12 00:31:10;;;;;;;4.18;2.35;;;6.10;91.90;;;;;;5074329;28;20029;-78
2022/04/12 00:33:36;;;;;;;3.17;2.80;;;6.10;92.00;;;;;;5050194;28;20025;-79
2022/04/12 00:36:04;;;;;;;3.33;2.25;;;6.10;92.10;;;;;;5069929;28;20028;-79
2022/04/12 00:38:33;;;;;;;3.72;2.60;;;6.10;92.10;;;;;;5078661;28;20134;-80
2022/04/12 00:41:00;;;;;;;3.47;2.65;;;6.00;92.10;;;;;;5075878;28;20545;-79
2022/04/12 00:43:28;;;;;;;3.30;2.45;;;6.00;92.20;;;;;;5058033;28;20055;-80
2022/04/12 00:45:53;;;;;;;3.92;3.00;;;6.00;92.20;;;;;;5057099;28;20017;-79
2022/04/12 00:48:19;;;;;;;3.83;2.70;;;6.00;92.20;;;;;;5061532;28;20025;-79
2022/04/12 00:50:46;;;;;;;4.22;3.03;;;6.00;92.30;;;;;;5062090;28;20025;-78
2022/04/12 00:53:13;;;;;;;4.10;2.95;;;6.00;92.30;;;;;;5063213;28;20097;-80
2022/04/12 00:55:38;;;;;;;4.18;3.00;;;6.00;92.20;;;;;;5062070;28;20432;-80
2022/04/12 00:58:07;;;;;;;4.68;3.00;;;6.00;92.20;;;;;;5062130;28;20028;-79
2022/04/12 01:00:34;;;;;;;7.03;3.60;;;6.00;92.20;;;;;;5063439;28;20024;-80
2022/04/12 01:03:01;;;;;;;3.20;2.53;;;6.00;92.30;;;;;;5066736;28;20036;-79
2022/04/12 01:05:27;;;;;;;4.07;2.83;;;6.00;92.30;;;;;;5065348;28;20028;-79
2022/04/12 01:07:53;;;;;;;4.93;3.03;;;6.00;92.30;;;;;;5061771;28;20074;-79
2022/04/12 01:10:19;;;;;;;5.28;2.92;;;6.00;92.40;;;;;;5062693;28;20021;-79
2022/04/12 01:12:47;;;;;;;3.28;2.80;;;6.00;92.50;;;;;;5081155;28;20020;-78
2022/04/12 01:15:17;;;;;;;3.15;2.85;;;6.00;92.50;;;;;;5080414;28;20016;-78
2022/04/12 01:17:44;;;;;;;4.75;2.97;;;5.90;92.50;;;;;;5079830;28;20099;-78
2022/04/12 01:20:11;;;;;;;3.83;2.75;;;5.90;92.50;;;;;;5079903;28;20059;-78
2022/04/12 01:23:00;;;;;;;3.22;2.88;;;5.90;92.60;;;;;;5061498;28;20025;-79
2022/04/12 01:25:26;;;;;;;3.58;2.50;;;5.90;92.70;;;;;;5028012;28;20065;-79
2022/04/12 01:27:52;;;;;;;5.13;3.42;;;5.90;92.70;;;;;;5059308;28;20032;-78
2022/04/12 01:30:18;;;;;;;5.32;3.55;;;5.80;92.70;;;;;;5059916;28;20024;-78
2022/04/12 01:32:44;;;;;;;4.25;2.92;;;5.80;92.70;;;;;;5078425;28;20496;-78
2022/04/12 01:35:09;;;;;;;5.75;3.00;;;5.80;92.70;;;;;;5065000;28;20032;-77
2022/04/12 01:37:35;;;;;;;3.83;2.65;;;5.80;92.70;;;;;;5059875;28;20056;-78
2022/04/12 01:40:03;;;;;;;6.15;3.40;;;5.80;92.70;;;;;;5060539;28;20036;-78
2022/04/12 01:42:28;;;;;;;3.47;2.55;;;5.80;92.70;;;;;;5068677;28;20024;-79
2022/04/12 01:44:54;;;;;;;4.20;3.13;;;5.80;92.80;;;;;;5080696;28;20082;-81
2022/04/12 01:47:20;;;;;;;5.28;3.33;;;5.80;92.80;;;;;;5080370;28;20043;-78
2022/04/12 01:49:45;;;;;;;3.60;2.60;;;5.80;93.10;;;;;;5080286;28;20080;-78
2022/04/12 01:52:11;;;;;;;5.70;3.28;;;5.80;92.80;;;;;;5080698;28;20373;-79
2022/04/12 01:54:37;;;;;;;8.38;3.42;;;5.70;92.80;;;;;;5062618;28;20024;-78
2022/04/12 01:57:03;;;;;;;5.40;2.70;;;5.70;92.90;;;;;;5062545;28;20031;-79
2022/04/12 01:59:29;;;;;;;4.05;2.88;;;5.70;92.90;;;;;;5080372;28;20129;-78
2022/04/12 02:01:55;;;;;;;3.65;2.60;;;5.70;93.00;;;;;;5080444;28;20029;-78
2022/04/12 02:04:24;;;;;;;3.88;2.80;;;5.70;92.90;;;;;;5078239;28;20026;-79
2022/04/12 02:06:49;;;;;;;4.07;3.20;;;5.70;93.00;;;;;;5073124;28;20021;-78
2022/04/12 02:09:15;;;;;;;3.78;2.78;;;5.60;93.00;;;;;;5063548;28;20035;-78
2022/04/12 02:11:43;;;;;;;3.97;2.65;;;5.60;93.10;;;;;;5078554;28;20055;-79
2022/04/12 02:14:09;;;;;;;3.80;2.63;;;5.60;93.20;;;;;;5060993;28;20105;-78
2022/04/12 02:16:35;;;;;;;3.00;2.47;;;5.50;93.30;;;;;;5060248;28;20036;-81
2022/04/12 02:19:01;;;;;;;2.67;2.17;;;5.50;93.40;;;;;;5060111;28;20059;-79
2022/04/12 02:21:26;;;;;;;2.72;2.17;;;5.50;93.50;;;;;;5059826;28;20029;-80
2022/04/12 02:23:52;;;;;;;2.50;1.80;;;5.50;93.70;;;;;;5061598;28;20021;-78
2022/04/12 02:26:21;;;;;;;2.50;1.98;;;5.50;93.70;;;;;;5060050;28;20028;-80
2022/04/12 02:31:33;;;;;;;2.55;1.75;;;5.40;93.70;;;;;;5063188;28;20036;-79
2022/04/12 02:33:59;;;;;;;2.58;2.10;;;5.40;93.80;;;;;;5066664;28;20461;-79
2022/04/12 02:36:25;;;;;;;2.50;2.05;;;5.40;93.80;;;;;;5071514;28;20048;-79
2022/04/12 02:38:51;;;;;;;3.25;2.65;;;5.40;93.80;;;;;;5082029;28;20032;-78
2022/04/12 02:41:16;;;;;;;2.05;1.85;;;5.40;93.90;;;;;;5120123;22;20525;-78
2022/04/12 02:43:42;;;;;;;3.58;2.55;;;5.40;93.90;;;;;;5089494;28;20035;-78
2022/04/12 02:46:09;;;;;;;3.03;2.33;;;5.30;93.90;;;;;;5096444;28;20071;-78
2022/04/12 02:48:35;;;;;;;4.60;3.13;;;5.40;94.00;;;;;;5098792;28;20008;-78
2022/04/12 02:51:01;;;;;;;3.65;2.42;;;5.30;94.00;;;;;;5115413;28;20032;-78
2022/04/12 02:53:26;;;;;;;3.35;2.25;;;5.30;94.00;;;;;;5097532;28;20024;-77
2022/04/12 02:55:52;;;;;;;4.13;2.60;;;5.30;94.00;;;;;;5115555;28;20055;-78
2022/04/12 02:58:18;;;;;;;2.88;2.58;;;5.20;94.10;;;;;;5116445;28;20027;-78
2022/04/12 03:00:44;;;;;;;2.70;2.22;;;5.20;94.20;;;;;;5098980;28;20024;-77
2022/04/12 03:03:10;;;;;;;3.08;2.58;;;5.20;94.00;;;;;;5102238;28;20024;-79
2022/04/12 03:05:36;;;;;;;4.72;2.42;;;5.20;94.10;;;;;;5095529;28;20392;-78
2022/04/12 03:08:02;;;;;;;4.20;2.60;;;5.10;94.30;;;;;;5094344;28;20031;-78
2022/04/12 03:10:27;;;;;;;4.28;2.80;;;5.10;94.30;;;;;;5094859;28;20035;-78
2022/04/12 03:12:53;;;;;;;3.67;2.38;;;5.00;94.40;;;;;;5085344;28;20449;-78
2022/04/12 03:15:19;;;;;;;3.13;2.63;;;5.00;94.50;;;;;;5094071;28;20024;-78
2022/04/12 03:17:44;;;;;;;2.63;2.38;;;5.00;94.70;;;;;;5093460;28;20108;-79
2022/04/12 03:20:10;;;;;;;4.25;2.50;;;5.00;94.80;;;;;;5093744;28;20585;-78
2022/04/12 03:22:36;;;;;;;2.60;1.85;;;5.00;94.90;;;;;;5097223;28;20032;-79
2022/04/12 03:25:02;;;;;;;2.58;1.90;;;5.00;94.90;;;;;;5095224;28;20020;-79
2022/04/12 03:27:28;;;;;;;3.70;2.53;;;5.00;94.90;;;;;;5096206;28;20031;-79
2022/04/12 03:29:54;;;;;;;2.67;2.42;;;5.00;95.00;;;;;;5094732;28;20023;-78
2022/04/12 03:32:19;;;;;;;2.58;2.30;;;5.00;95.10;;;;;;5095323;28;20466;-78
2022/04/12 03:34:46;;;;;;;3.45;2.15;;;5.00;95.10;;;;;;5093303;28;20032;-77
2022/04/12 03:37:14;;;;;;;2.75;2.10;;;5.00;95.20;;;;;;5093808;28;20059;-77
2022/04/12 03:39:40;;;;;;;2.10;1.90;;;5.00;95.30;;;;;;5094126;28;20027;-77
2022/04/12 03:42:11;;;;;;;1.88;1.60;;;5.00;95.40;;;;;;5088213;28;20040;-78
2022/04/12 03:44:37;;;;;;;3.17;1.85;;;5.10;95.50;;;;;;5095115;28;20087;-78
2022/04/12 03:47:07;;;;;;;2.22;1.55;;;5.10;95.50;;;;;;5096426;28;20494;-78
2022/04/12 03:49:33;;;;;;;2.17;1.90;;;5.10;95.50;;;;;;5097347;28;20028;-78
2022/04/12 03:51:59;;;;;;;2.15;1.77;;;5.10;95.50;;;;;;5080304;28;20472;-78
2022/04/12 03:54:25;;;;;;;2.03;1.58;;;5.10;95.50;;;;;;5098479;28;20448;-78
2022/04/12 03:56:51;;;;;;;1.80;1.67;;;5.10;95.60;;;;;;5095580;28;20035;-77
2022/04/12 03:59:17;;;;;;;1.77;1.50;;;5.10;95.60;;;;;;5095022;28;20040;-77
2022/04/12 04:01:42;;;;;;;2.83;2.10;;;5.00;95.70;;;;;;5077820;28;20055;-77
2022/04/12 04:04:09;;;;;;;1.92;1.52;;;5.10;95.80;;;;;;5094687;28;20107;-78
2022/04/12 04:06:35;;;;;;;2.15;1.50;;;5.10;95.80;;;;;;5076339;28;20115;-78
2022/04/12 04:09:01;;;;;;;1.67;1.33;;;5.10;95.80;;;;;;5094293;28;20021;-77
2022/04/12 04:11:27;;;;;;;1.52;1.42;;;5.00;95.90;;;;;;5094267;28;20028;-78
2022/04/12 04:13:53;;;;;;;1.63;1.52;;;5.00;96.00;;;;;;5080482;28;20084;-77
2022/04/12 04:16:18;;;;;;;2.65;1.83;;;5.00;96.10;;;;;;5076558;28;20036;-77
2022/04/12 04:18:44;;;;;;;2.00;1.55;;;5.00;96.20;;;;;;5094064;28;20384;-78
2022/04/12 04:21:10;;;;;;;1.98;1.33;;;5.10;96.20;;;;;;5094931;28;20058;-78
2022/04/12 04:23:35;;;;;;;1.60;1.50;;;5.10;96.20;;;;;;5096022;28;20024;-78
2022/04/12 04:26:01;;;;;;;1.77;1.67;;;5.00;96.20;;;;;;5090901;28;20027;-77
2022/04/12 04:28:30;;;;;;;2.47;1.80;;;5.00;96.30;;;;;;5095735;28;20036;-77
2022/04/12 04:30:56;;;;;;;2.40;1.42;;;5.00;96.40;;;;;;5097992;28;20020;-77
2022/04/12 04:33:22;;;;;;;2.13;1.52;;;5.00;96.50;;;;;;5104323;28;20090;-76
2022/04/12 04:35:49;;;;;;;1.92;1.70;;;5.00;96.60;;;;;;5103690;28;20020;-77
2022/04/12 04:38:15;;;;;;;2.50;1.65;;;5.00;96.60;;;;;;5087896;28;20024;-77
2022/04/12 04:40:41;;;;;;;3.13;1.58;;;5.00;96.60;;;;;;5097394;28;20040;-78
2022/04/12 04:43:08;;;;;;;2.78;2.03;;;5.00;96.70;;;;;;5082686;28;20089;-79
2022/04/12 04:45:35;;;;;;;2.10;1.77;;;5.00;96.90;;;;;;5078194;28;20069;-78
2022/04/12 04:48:03;;;;;;;3.65;1.98;;;5.00;96.90;;;;;;5083335;28;20024;-77
2022/04/12 04:50:31;;;;;;;4.13;2.60;;;5.00;96.90;;;;;;5097455;28;20042;-78
2022/04/12 04:53:02;;;;;;;3.75;2.28;;;5.00;96.80;;;;;;5099899;28;20031;-78
2022/04/12 04:55:28;;;;;;;4.25;2.47;;;5.10;96.70;;;;;;5097591;28;20031;-78
2022/04/12 04:57:55;;;;;;;5.20;2.45;;;5.10;96.50;;;;;;5096173;28;20024;-78
2022/04/12 05:00:22;;;;;;;2.78;2.45;;;5.10;96.40;;;;;;5079458;28;20020;-78
2022/04/12 05:02:49;;;;;;;3.65;2.67;;;5.10;96.30;;;;;;5097387;28;20008;-77
2022/04/12 05:05:16;;;;;;;3.47;2.15;;;5.20;96.20;;;;;;5096902;28;20016;-77
2022/04/12 05:07:44;;;;;;;4.57;2.25;;;5.20;96.20;;;;;;5096486;28;20024;-77
2022/04/12 05:10:15;;;;;;;5.13;2.33;;;5.20;96.10;;;;;;5096033;28;20020;-77
2022/04/12 05:12:40;;;;;;;4.03;2.20;;;5.30;96.10;;;;;;5087962;28;20047;-76
2022/04/12 05:15:07;;;;;;;7.18;3.17;;;5.40;96.00;;;;;;5086130;28;20028;-77
2022/04/12 05:17:32;;;;;;;5.25;3.10;;;5.40;95.80;;;;;;5076793;28;20025;-78
2022/04/12 05:20:04;;;;;;;4.95;3.17;;;5.30;95.70;;;;;;5091310;28;20467;-77
2022/04/12 05:22:30;;;;;;;4.20;3.30;;;5.40;95.70;;;;;;5098282;28;20502;-77
2022/04/12 05:24:56;;;;;;;5.25;3.00;;;5.40;95.80;;;;;;5097918;28;20040;-78
2022/04/12 05:27:21;;;;;;;5.68;3.25;;;5.40;95.90;;;;;;5097729;28;20349;-77
2022/04/12 05:29:48;;;;;;;3.45;2.83;;;5.40;95.80;;;;;;5096812;28;20035;-78
2022/04/12 05:32:14;;;;;;;4.88;2.80;;;5.40;95.70;;;;;;5098128;28;20016;-79
2022/04/12 05:34:40;;;;;;;5.57;2.88;;;5.50;95.60;;;;;;5097742;28;20047;-77
2022/04/12 05:37:06;;;;;;;5.50;2.83;;;5.60;95.40;;;;;;5098766;28;20023;-78
2022/04/12 05:39:32;;;;;;;4.13;2.80;;;5.70;95.20;;;;;;5097516;28;20020;-78
2022/04/12 05:42:01;;;;;;;4.43;2.75;;;5.70;95.00;;;;;;5097442;28;20441;-78
2022/04/12 05:44:34;;;;;;;3.55;2.72;;;5.80;95.10;;;;;;5078702;28;20515;-78
2022/04/12 05:47:03;;;;;;;3.70;2.65;;;5.90;94.60;;;;;;5096964;28;20108;-77
2022/04/12 05:49:30;;;;;;;4.55;2.70;;;6.00;94.40;;;;;;5101767;28;20497;-78
2022/04/12 05:51:56;;;;;;;3.38;2.30;;;6.10;94.20;;;;;;5087664;28;20456;-77
2022/04/12 05:54:23;;;;;;;2.58;2.28;;;6.20;94.30;;;;;;5101752;28;20024;-77
2022/04/12 05:56:49;;;;;;;4.00;2.53;;;6.40;93.70;;;;;;5096943;28;20042;-79
2022/04/12 05:59:14;;;;;;;4.30;2.13;;;6.60;93.30;;;;;;5078583;28;20115;-78
2022/04/12 06:01:40;;;;;;;4.90;2.75;;;6.70;93.00;;;;;;5095912;28;20086;-78
2022/04/12 06:04:07;;;;;;;7.85;3.03;;;6.80;92.60;;;;;;5097873;28;20032;-78
2022/04/12 06:06:33;;;;;;;5.20;3.35;;;6.90;92.20;;;;;;5098515;28;20454;-77
2022/04/12 06:08:59;;;;;;;4.93;3.28;;;6.90;91.70;;;;;;5096988;28;20020;-78
2022/04/12 06:11:26;;;;;;;3.78;3.10;;;7.00;91.70;;;;;;5097161;28;20114;-78
2022/04/12 06:13:51;;;;;;;3.90;2.95;;;7.00;91.60;;;;;;5097109;28;20024;-79
2022/04/12 06:16:17;;;;;;;5.28;3.17;;;7.10;91.50;;;;;;5097627;28;20024;-78
2022/04/12 06:18:43;;;;;;;10.45;3.10;;;7.20;91.40;;;;;;5078960;28;20020;-78
2022/04/12 06:21:09;;;;;;;9.05;3.60;;;7.30;91.20;;;;;;5098083;28;20366;-77
2022/04/12 06:23:34;;;;;;;5.63;3.03;;;7.30;91.00;;;;;;5099290;28;20024;-78
2022/04/12 06:26:00;;;;;;;4.40;3.58;;;7.40;90.90;;;;;;5079557;28;20031;-78
2022/04/12 06:28:26;;;;;;;4.88;3.38;;;7.50;90.70;;;;;;5096980;28;20028;-78
2022/04/12 06:30:52;;;;;;;7.68;2.83;;;7.60;90.40;;;;;;5097734;28;20028;-78
2022/04/12 06:33:19;;;;;;;6.13;3.63;;;7.80;90.10;;;;;;5099961;28;20107;-78
2022/04/12 06:35:45;;;;;;;5.55;3.88;;;7.90;89.30;;;;;;5079427;28;20109;-78
2022/04/12 06:38:11;;;;;;;4.32;3.50;;;8.00;88.60;;;;;;5096425;28;20047;-78
2022/04/12 06:40:37;;;;;;;12.90;4.63;;;8.00;87.80;;;;;;5096309;28;20363;-78
2022/04/12 06:43:03;;;;;;;9.98;4.63;;;8.00;87.80;;;;;;5078107;28;20035;-79
2022/04/12 06:45:29;;;;;;;8.63;4.15;;;7.90;88.10;;;;;;5096420;28;20057;-78
2022/04/12 06:47:56;;;;;;;7.25;3.53;;;7.90;87.80;;;;;;5096576;28;20091;-79
2022/04/12 06:50:23;;;;;;;5.63;3.38;;;7.90;87.90;;;;;;5097955;28;20139;-79
2022/04/12 06:52:49;;;;;;;5.75;3.67;;;8.00;88.00;;;;;;5098571;28;20035;-77
2022/04/12 06:55:17;;;;;;;6.35;3.28;;;8.10;87.80;;;;;;5098216;28;20016;-78
2022/04/12 06:57:43;;;;;;;4.25;2.85;;;8.40;87.40;;;;;;5097721;28;20051;-79
2022/04/12 07:00:10;;;;;;;7.28;3.72;;;8.60;86.80;;;;;;5097958;28;20054;-78
2022/04/12 07:02:37;;;;;;;5.60;3.30;;;8.80;85.50;;;;;;5100778;28;20435;-78
2022/04/12 07:05:04;;;;;;;4.43;2.80;;;8.90;84.40;;;;;;5097158;28;20028;-78
2022/04/12 07:07:30;;;;;;;5.65;3.47;;;9.00;83.50;;;;;;5096398;28;20031;-78
2022/04/12 07:09:56;;;;;;;9.85;4.30;;;9.00;82.50;;;;;;5078756;28;20024;-79
2022/04/12 07:12:23;;;;;;;5.18;2.70;;;9.00;82.70;;;;;;5088787;28;20074;-77
2022/04/12 07:14:49;;;;;;;4.18;2.65;;;9.10;82.90;;;;;;5095963;28;20491;-78
2022/04/12 07:17:14;;;;;;;6.75;2.92;;;9.20;82.70;;;;;;5095756;28;20028;-79
2022/04/12 07:19:40;;;;;;;4.63;3.28;;;9.30;82.20;;;;;;5095880;28;20028;-78
2022/04/12 07:22:07;;;;;;;6.88;3.47;;;9.30;81.40;;;;;;5096007;28;20031;-78
2022/04/12 07:24:33;;;;;;;4.35;3.22;;;9.30;81.30;;;;;;5098302;28;20027;-80
2022/04/12 07:26:59;;;;;;;5.78;2.45;;;9.30;81.20;;;;;;5106479;28;20016;-79
2022/04/12 07:29:24;;;;;;;6.50;3.15;;;9.50;81.40;;;;;;5111790;28;20038;-78
2022/04/12 07:31:50;;;;;;;3.40;2.40;;;9.60;80.90;;;;;;5113096;28;20054;-78
2022/04/12 07:34:17;;;;;;;4.45;2.35;;;9.70;80.40;;;;;;5113305;28;20055;-78
2022/04/12 07:36:47;;;;;;;4.25;2.70;;;9.80;79.40;;;;;;5114429;28;20023;-78
2022/04/12 07:39:16;;;;;;;2.63;1.90;;;10.00;78.50;;;;;;5112438;28;20103;-78
2022/04/12 07:41:42;;;;;;;2.55;2.00;;;10.20;78.10;;;;;;5107556;28;20041;-79
2022/04/12 07:44:08;;;;;;;6.80;3.10;;;10.40;77.20;;;;;;5094293;28;20362;-80
2022/04/12 07:46:34;;;;;;;3.63;2.35;;;10.40;75.60;;;;;;5100013;28;20027;-78
2022/04/12 07:49:00;;;;;;;5.07;2.40;;;10.50;75.40;;;;;;5101822;28;20016;-78
2022/04/12 07:51:26;;;;;;;3.80;2.15;;;10.50;75.40;;;;;;5102823;28;20077;-78
2022/04/12 07:53:52;;;;;;;4.70;2.67;;;10.70;75.00;;;;;;5099856;28;20036;-78
2022/04/12 07:56:18;;;;;;;3.97;2.20;;;10.90;75.50;;;;;;5098579;28;20026;-79
2022/04/12 07:58:44;;;;;;;2.70;2.08;;;11.10;74.50;;;;;;5098808;28;20058;-77
2022/04/12 08:01:09;;;;;;;3.03;1.95;;;11.30;73.40;;;;;;5104196;28;20110;-79
2022/04/12 08:03:36;;;;;;;3.83;1.73;;;11.50;72.30;;;;;;5103384;28;20107;-79
2022/04/12 08:06:02;;;;;;;4.30;1.88;;;11.70;71.80;;;;;;5082855;28;20038;-78
2022/04/12 08:08:29;;;;;;;8.43;2.42;;;11.90;71.00;;;;;;5098376;28;20092;-79
2022/04/12 08:10:55;;;;;;;2.65;2.08;;;12.10;69.20;;;;;;5079658;28;20070;-77
2022/04/12 08:13:20;;;;;;;3.45;1.65;;;12.10;69.10;;;;;;5086787;28;20373;-78
2022/04/12 08:15:46;;;;;;;3.53;1.92;;;12.30;68.30;;;;;;5086768;28;20213;-78
2022/04/12 08:18:12;;;;;;;2.53;1.90;;;12.50;67.10;;;;;;5095985;28;20031;-79
2022/04/12 08:20:37;;;;;;;3.08;2.08;;;12.60;66.80;;;;;;5097383;28;20532;-79
2022/04/12 08:23:03;;;;;;;3.17;2.08;;;12.80;65.60;;;;;;5096615;28;20075;-79
2022/04/12 08:25:29;;;;;;;2.25;1.85;;;13.00;64.80;;;;;;5098781;28;20111;-78
2022/04/12 08:27:55;;;;;;;3.88;2.13;;;13.20;63.70;;;;;;5077509;28;20109;-79
2022/04/12 08:30:21;;;;;;;2.28;1.52;;;13.40;62.30;;;;;;5097599;28;20117;-79
2022/04/12 08:32:47;;;;;;;3.70;1.80;;;13.70;62.20;;;;;;5097263;28;20032;-80
2022/04/12 08:35:13;;;;;;;2.92;1.58;;;13.90;60.10;;;;;;5096743;28;20440;-79
2022/04/12 08:37:39;;;;;;;1.60;1.48;;;14.10;59.50;;;;;;5096974;28;20318;-78
2022/04/12 08:40:06;;;;;;;2.53;1.77;;;14.50;58.60;;;;;;5098365;28;20039;-78
2022/04/12 08:42:32;;;;;;;1.30;1.20;;;14.80;57.30;;;;;;5097632;28;20032;-79
2022/04/12 08:44:58;;;;;;;2.13;1.55;;;15.10;57.20;;;;;;5097523;28;20142;-79
2022/04/12 08:47:25;;;;;;;2.13;1.35;;;15.40;55.80;;;;;;5098073;28;20139;-79
2022/04/12 08:49:50;;;;;;;2.50;1.73;;;15.40;54.40;;;;;;5096620;28;20414;-79
2022/04/12 08:52:16;;;;;;;3.92;2.03;;;15.40;54.10;;;;;;5097226;28;20035;-79
2022/04/12 08:54:44;;;;;;;4.90;2.38;;;15.40;53.40;;;;;;5097293;28;20073;-80
2022/04/12 08:57:12;;;;;;;3.45;1.70;;;15.50;53.60;;;;;;5096891;28;20024;-79
2022/04/12 08:59:39;;;;;;;3.33;2.25;;;15.50;53.20;;;;;;5094809;28;20434;-78
2022/04/12 09:02:07;;;;;;;2.95;1.60;;;15.80;53.30;;;;;;5095284;28;20024;-79
2022/04/12 09:04:34;;;;;;;3.83;1.52;;;16.00;51.80;;;;;;5079630;28;20023;-78
2022/04/12 09:07:00;;;;;;;1.95;1.20;;;16.10;51.30;;;;;;5096652;28;20045;-79
2022/04/12 09:09:32;;;;;;;1.67;1.20;;;16.30;51.10;;;;;;5098255;28;20028;-79
2022/04/12 09:12:06;;;;;;;2.42;1.23;;;16.60;50.80;;;;;;5100847;28;20393;-79
2022/04/12 09:14:47;;;;;;;2.42;1.50;;;16.70;50.00;;;;;;5101522;28;20093;-79
2022/04/12 09:17:15;;;;;;;3.00;1.70;;;16.70;48.70;;;;;;5101266;28;20016;-79
2022/04/12 09:19:47;;;;;;;2.50;1.27;;;16.60;49.30;;;;;;5099931;28;20031;-79
2022/04/12 09:22:24;;;;;;;3.38;1.52;;;16.80;49.80;;;;;;5099930;28;20032;-80
2022/04/12 09:24:58;;;;;;;2.63;1.38;;;16.90;49.70;;;;;;5099083;28;20020;-78
2022/04/12 09:27:25;;;;;;;2.83;1.40;;;17.20;49.70;;;;;;5099745;28;20017;-79
2022/04/12 09:30:03;;;;;;;1.63;1.48;;;17.40;49.20;;;;;;5098886;28;20016;-79
2022/04/12 09:32:34;;;;;;;2.03;1.67;;;17.60;49.50;;;;;;5079716;28;20051;-79
2022/04/12 09:35:00;;;;;;;3.47;2.20;;;17.80;48.90;;;;;;5097905;28;20028;-78
2022/04/12 09:37:28;;;;;;;4.38;1.77;;;18.10;48.50;;;;;;5097110;28;20063;-78
2022/04/12 09:39:59;;;;;;;2.42;1.95;;;18.10;48.80;;;;;;5097459;28;20330;-77
2022/04/12 09:43:01;;;;;;;2.63;1.63;;;18.00;47.70;;;;;;5095209;28;20122;-79
2022/04/12 09:45:29;;;;;;;3.85;1.50;;;17.90;48.10;;;;;;5058853;28;20036;-78
2022/04/12 09:48:01;;;;;;;1.83;1.65;;;18.10;48.10;;;;;;5081564;28;20032;-78
2022/04/12 09:50:29;;;;;;;3.30;2.20;;;18.20;47.80;;;;;;5097658;28;20045;-79
2022/04/12 09:53:03;;;;;;;4.38;1.20;;;18.20;47.60;;;;;;5079665;28;20425;-78
2022/04/12 09:55:42;;;;;;;5.97;1.40;;;18.20;47.80;;;;;;5097410;28;20068;-78
2022/04/12 09:58:11;;;;;;;1.38;1.17;;;18.50;47.20;;;;;;5095441;28;20306;-77
2022/04/12 10:00:39;;;;;;;1.67;1.10;;;19.00;46.50;;;;;;5096304;28;20511;-78
2022/04/12 10:03:09;;;;;;;1.67;1.52;;;19.30;46.00;;;;;;5097099;28;20105;-78
2022/04/12 10:05:35;;;;;;;3.20;1.48;;;19.50;46.20;;;;;;5096804;28;20048;-78
2022/04/12 10:08:03;;;;;;;3.00;1.20;;;19.70;45.30;;;;;;5095945;28;20081;-78
2022/04/12 10:10:32;;;;;;;3.38;1.20;;;19.70;45.00;;;;;;5098285;28;20392;-78
2022/04/12 10:12:59;;;;;;;2.08;1.00;;;19.70;43.30;;;;;;5088165;28;20016;-78
2022/04/12 10:15:28;;;;;;;1.40;0.73;;;19.80;42.40;;;;;;5097618;28;20028;-78
2022/04/12 10:17:55;;;;;;;1.25;0.80;;;19.70;41.90;;;;;;5095581;28;20028;-78
2022/04/12 10:20:22;;;;;;;1.25;0.85;;;19.70;41.90;;;;;;5095326;28;20354;-78
2022/04/12 10:22:49;;;;;;;1.95;0.90;;;19.70;42.00;;;;;;5095855;28;20032;-76
2022/04/12 10:25:23;;;;;;;2.67;0.90;;;19.80;41.80;;;;;;5096478;28;20020;-78
2022/04/12 10:27:51;;;;;;;3.83;0.77;;;19.70;42.50;;;;;;5096071;28;20167;-78
2022/04/12 10:30:17;;;;;;;2.47;0.80;;;19.60;42.80;;;;;;5096588;28;20048;-78
2022/04/12 10:33:16;;;;;;;2.75;1.33;;;19.70;42.60;;;;;;5098916;28;20032;-78
2022/04/12 10:35:44;;;;;;;2.95;1.17;;;19.70;42.60;;;;;;5100120;28;20024;-78
2022/04/12 10:38:22;;;;;;;3.58;1.05;;;19.90;42.50;;;;;;5079594;28;20027;-78
2022/04/12 10:40:56;;;;;;;3.97;1.23;;;19.90;43.10;;;;;;5095700;28;20563;-78
2022/04/12 10:43:33;;;;;;;2.35;1.05;;;19.90;42.80;;;;;;5086451;28;20025;-78
2022/04/12 10:46:05;;;;;;;2.08;0.77;;;19.90;43.20;;;;;;5089232;28;20020;-77
2022/04/12 10:48:32;;;;;;;1.52;0.80;;;19.90;43.10;;;;;;5095707;28;20028;-78
2022/04/12 10:51:03;;;;;;;1.85;1.33;;;20.00;43.30;;;;;;5096231;28;20021;-78
2022/04/12 10:53:52;;;;;;;5.95;1.25;;;20.20;43.10;;;;;;5096048;28;20048;-77
2022/04/12 10:56:23;;;;;;;3.60;1.15;;;20.20;42.80;;;;;;5082322;28;20040;-77
2022/04/12 10:58:49;;;;;;;2.17;1.27;;;20.30;42.60;;;;;;5095244;28;20023;-78
2022/04/12 11:01:35;;;;;;;1.30;1.05;;;20.20;42.90;;;;;;5095719;28;20049;-78
2022/04/12 11:04:02;;;;;;;2.78;1.58;;;20.30;43.90;;;;;;5098070;28;20020;-77
2022/04/12 11:06:33;;;;;;;1.42;1.13;;;20.40;44.80;;;;;;5095263;28;20571;-77
2022/04/12 11:09:10;;;;;;;2.50;1.73;;;20.50;44.70;;;;;;5095599;28;20022;-78
2022/04/12 11:11:41;;;;;;;6.28;3.53;;;20.70;45.30;;;;;;5093542;28;20031;-78
2022/04/12 11:14:28;;;;;;;3.13;2.37;;;20.60;46.60;;;;;;5091927;28;20024;-79
2022/04/12 11:17:03;;;;;;;3.28;2.65;;;20.20;48.40;;;;;;5095512;28;20106;-78
2022/04/12 11:19:43;;;;;;;6.80;2.70;;;20.00;48.30;;;;;;5095818;28;20506;-78
2022/04/12 11:22:14;;;;;;;6.53;2.80;;;20.00;48.80;;;;;;5096984;28;20035;-78
2022/04/12 11:24:40;;;;;;;3.13;2.20;;;20.00;48.10;;;;;;5096100;28;20023;-78
2022/04/12 11:27:10;;;;;;;4.97;1.98;;;20.10;47.50;;;;;;5096985;28;20020;-79
2022/04/12 11:29:38;;;;;;;3.65;2.40;;;20.50;47.50;;;;;;5096299;28;20083;-78
2022/04/12 11:32:04;;;;;;;3.40;2.47;;;20.90;46.10;;;;;;5096528;28;20016;-78
2022/04/12 11:34:31;;;;;;;5.70;2.17;;;20.80;46.30;;;;;;5094557;28;20074;-78
2022/04/12 11:37:05;;;;;;;2.80;2.60;;;20.80;46.10;;;;;;5095383;28;20031;-79
2022/04/12 11:39:32;;;;;;;7.45;2.60;;;20.60;46.90;;;;;;5094321;28;20060;-79
2022/04/12 11:42:00;;;;;;;7.95;3.88;;;20.40;47.10;;;;;;5093060;28;20039;-78
2022/04/12 11:44:27;;;;;;;9.48;3.40;;;20.40;47.50;;;;;;5095576;28;20035;-79
2022/04/12 11:47:01;;;;;;;7.00;2.75;;;20.40;47.30;;;;;;5105391;28;20435;-79
2022/04/12 11:49:38;;;;;;;9.18;3.40;;;20.50;47.20;;;;;;5095973;28;20063;-79
2022/04/12 11:52:09;;;;;;;6.45;2.65;;;20.60;46.60;;;;;;5096114;28;20035;-79
2022/04/12 11:54:47;;;;;;;2.97;2.53;;;20.60;46.50;;;;;;5096594;28;20080;-79
2022/04/12 11:57:14;;;;;;;8.13;3.30;;;20.60;47.00;;;;;;5096640;28;20516;-79
2022/04/12 11:59:46;;;;;;;5.65;3.08;;;20.80;46.70;;;;;;5096168;28;20035;-78
2022/04/12 12:02:13;;;;;;;8.88;3.10;;;20.90;46.70;;;;;;5100649;28;20039;-77
2022/04/12 12:04:47;;;;;;;4.88;3.30;;;20.70;47.00;;;;;;5112077;28;20020;-79
2022/04/12 12:07:14;;;;;;;4.70;2.72;;;20.40;48.10;;;;;;5097860;28;20087;-78
2022/04/12 12:10:02;;;;;;;6.78;3.42;;;20.30;48.10;;;;;;5115544;28;20038;-79
2022/04/12 12:12:39;;;;;;;5.60;3.83;;;20.30;48.20;;;;;;5096608;28;20712;-78
2022/04/12 12:15:17;;;;;;;6.10;3.17;;;20.30;48.40;;;;;;5105837;28;20068;-79
2022/04/12 12:17:45;;;;;;;4.63;3.17;;;20.40;49.00;;;;;;5094913;28;20042;-78
2022/04/12 12:20:11;;;;;;;6.68;3.53;;;20.60;48.80;;;;;;5096825;28;20043;-78
2022/04/12 12:22:40;;;;;;;6.43;3.00;;;20.90;48.20;;;;;;5096290;28;20116;-78
2022/04/12 12:25:06;;;;;;;4.40;2.90;;;21.10;47.90;;;;;;5094287;28;20384;-79
2022/04/12 12:27:37;;;;;;;7.63;2.97;;;21.20;48.00;;;;;;5095326;28;20023;-80
2022/04/12 12:30:06;;;;;;;5.10;2.75;;;21.30;47.10;;;;;;5094750;28;20463;-77
2022/04/12 12:32:33;;;;;;;5.47;3.33;;;21.30;47.30;;;;;;5095127;28;20494;-78
2022/04/12 12:35:04;;;;;;;4.30;2.55;;;21.40;47.50;;;;;;5094260;28;20027;-78
2022/04/12 12:37:30;;;;;;;4.97;2.00;;;21.40;46.90;;;;;;5094878;28;20032;-79
2022/04/12 12:39:56;;;;;;;2.90;2.13;;;21.50;45.10;;;;;;5097390;28;20077;-78
2022/04/12 12:42:22;;;;;;;5.32;2.63;;;21.70;43.90;;;;;;5090013;28;20114;-78
2022/04/12 12:44:48;;;;;;;7.55;3.67;;;21.80;45.40;;;;;;5098679;28;20023;-78
2022/04/12 12:47:14;;;;;;;4.45;2.22;;;21.80;45.00;;;;;;5099043;28;20044;-78
2022/04/12 12:49:41;;;;;;;8.10;3.40;;;21.50;45.90;;;;;;5100476;28;20035;-79
2022/04/12 12:52:14;;;;;;;4.70;2.63;;;21.50;46.00;;;;;;5101421;28;20529;-78
2022/04/12 12:54:39;;;;;;;4.15;2.50;;;21.50;46.20;;;;;;5101638;28;20396;-79
2022/04/12 12:57:08;;;;;;;4.72;2.83;;;21.40;44.90;;;;;;5101769;28;20020;-79
2022/04/12 12:59:35;;;;;;;5.72;3.22;;;21.30;45.50;;;;;;5099889;28;20358;-79
2022/04/12 13:02:11;;;;;;;8.88;3.78;;;21.40;46.20;;;;;;5100950;28;20034;-78